createdAt,value
2019-05-22T00:01:50.987Z,15.20
2019-05-22T00:04:22.116Z,15.10
2019-05-22T00:06:52.358Z,15.10
2019-05-22T00:09:24.020Z,15.20
2019-05-22T00:11:56.556Z,15.00
2019-05-22T00:14:27.796Z,14.90
2019-05-22T00:17:01.175Z,14.90
2019-05-22T00:19:30.726Z,14.90
2019-05-22T00:22:07.588Z,14.70
2019-05-22T00:24:39.589Z,14.70
2019-05-22T00:27:11.564Z,14.80
2019-05-22T00:29:44.155Z,14.90
2019-05-22T00:32:16.551Z,14.80
2019-05-22T00:34:48.646Z,14.70
2019-05-22T00:37:18.678Z,14.50
2019-05-22T00:39:48.535Z,14.30
2019-05-22T00:42:19.048Z,14.50
2019-05-22T00:44:51.675Z,14.50
2019-05-22T00:47:22.877Z,14.60
2019-05-22T00:49:52.934Z,14.60
2019-05-22T00:52:28.049Z,14.60
2019-05-22T00:55:16.051Z,14.60
2019-05-22T00:57:56.915Z,14.60
2019-05-22T01:00:28.042Z,14.50
2019-05-22T01:02:59.167Z,13.60
2019-05-22T01:05:29.547Z,13.30
2019-05-22T01:08:00.742Z,13.80
2019-05-22T01:10:31.474Z,14.10
2019-05-22T01:13:03.472Z,14.30
2019-05-22T01:15:33.036Z,14.30
2019-05-22T01:18:06.847Z,14.30
2019-05-22T01:20:37.977Z,14.30
2019-05-22T01:23:09.295Z,14.20
2019-05-22T01:25:39.076Z,14.20
2019-05-22T01:28:09.971Z,14.20
2019-05-22T01:30:44.375Z,14.10
2019-05-22T01:33:15.772Z,14.00
2019-05-22T01:35:52.861Z,14.20
2019-05-22T01:38:23.302Z,14.10
2019-05-22T01:41:01.748Z,14.10
2019-05-22T01:43:32.157Z,14.00
2019-05-22T01:46:03.753Z,14.00
2019-05-22T01:48:39.608Z,14.00
2019-05-22T01:51:12.620Z,14.00
2019-05-22T01:53:43.860Z,14.00
2019-05-22T01:56:15.854Z,13.90
2019-05-22T01:58:47.367Z,13.90
2019-05-22T02:01:19.075Z,13.80
2019-05-22T02:03:50.346Z,13.80
2019-05-22T02:06:23.864Z,13.80
2019-05-22T02:09:14.123Z,13.80
2019-05-22T02:11:46.226Z,13.80
2019-05-22T02:14:17.554Z,13.80
2019-05-22T02:16:56.755Z,13.80
2019-05-22T02:19:20.766Z,13.70
2019-05-22T02:21:50.495Z,13.70
2019-05-22T02:24:20.141Z,13.60
2019-05-22T02:26:50.078Z,13.70
2019-05-22T02:29:21.441Z,13.70
2019-05-22T02:31:55.171Z,13.60
2019-05-22T02:34:23.488Z,13.20
2019-05-22T02:36:53.797Z,13.30
2019-05-22T02:39:30.898Z,13.50
2019-05-22T02:42:06.573Z,13.50
2019-05-22T02:44:37.098Z,13.50
2019-05-22T02:47:19.258Z,13.40
2019-05-22T02:49:39.974Z,13.30
2019-05-22T02:52:11.516Z,13.20
2019-05-22T02:54:41.559Z,13.10
2019-05-22T02:57:11.792Z,12.90
2019-05-22T02:59:43.218Z,12.70
2019-05-22T03:02:14.439Z,12.70
2019-05-22T03:04:59.871Z,13.00
2019-05-22T03:07:31.595Z,13.10
2019-05-22T03:10:02.290Z,13.00
2019-05-22T03:12:34.636Z,13.20
2019-05-22T03:15:07.443Z,13.10
2019-05-22T03:17:39.936Z,13.00
2019-05-22T03:20:16.725Z,12.90
2019-05-22T03:22:55.294Z,12.90
2019-05-22T03:25:27.044Z,12.70
2019-05-22T03:27:57.648Z,12.80
2019-05-22T03:30:37.156Z,13.00
2019-05-22T03:33:11.896Z,13.00
2019-05-22T03:35:47.498Z,13.10
2019-05-22T03:38:19.131Z,13.00
2019-05-22T03:40:51.165Z,13.00
2019-05-22T03:43:23.658Z,12.90
2019-05-22T03:45:55.432Z,12.90
2019-05-22T03:48:27.562Z,12.80
2019-05-22T03:51:13.441Z,12.70
2019-05-22T03:53:44.041Z,12.70
2019-05-22T03:56:15.994Z,12.80
2019-05-22T03:58:48.737Z,12.60
2019-05-22T04:01:18.555Z,12.50
2019-05-22T04:03:49.501Z,12.50
2019-05-22T04:06:20.757Z,12.50
2019-05-22T04:08:52.648Z,12.60
2019-05-22T04:11:24.383Z,12.50
2019-05-22T04:13:54.431Z,12.60
2019-05-22T04:16:25.701Z,12.60
2019-05-22T04:18:57.861Z,12.60
2019-05-22T04:21:27.523Z,12.60
2019-05-22T04:23:57.293Z,12.50
2019-05-22T04:26:26.877Z,12.50
2019-05-22T04:28:57.100Z,12.40
2019-05-22T04:31:48.727Z,12.50
2019-05-22T04:34:19.935Z,12.40
2019-05-22T04:36:54.119Z,12.50
2019-05-22T04:39:27.517Z,12.60
2019-05-22T04:41:59.204Z,12.50
2019-05-22T04:44:29.337Z,12.50
2019-05-22T04:47:00.408Z,12.50
2019-05-22T04:49:29.957Z,12.50
2019-05-22T04:51:59.604Z,12.30
2019-05-22T04:54:29.745Z,12.10
2019-05-22T04:56:59.360Z,12.00
2019-05-22T04:59:30.204Z,11.90
2019-05-22T05:02:00.961Z,12.20
2019-05-22T05:04:30.523Z,12.20
2019-05-22T05:07:00.727Z,12.20
2019-05-22T05:09:30.929Z,12.40
2019-05-22T05:12:00.483Z,12.40
2019-05-22T05:14:32.386Z,12.30
2019-05-22T05:17:04.115Z,12.40
2019-05-22T05:19:33.975Z,12.30
2019-05-22T05:22:03.588Z,12.40
2019-05-22T05:24:33.502Z,12.40
2019-05-22T05:27:04.347Z,12.70
2019-05-22T05:29:34.549Z,12.60
2019-05-22T05:32:04.122Z,12.50
2019-05-22T05:34:39.694Z,12.50
2019-05-22T05:37:10.117Z,12.60
2019-05-22T05:39:52.820Z,12.40
2019-05-22T05:42:22.370Z,12.50
2019-05-22T05:44:51.932Z,12.40
2019-05-22T05:47:23.471Z,12.60
2019-05-22T05:49:53.199Z,12.60
2019-05-22T05:52:24.032Z,12.60
2019-05-22T05:54:54.083Z,12.80
2019-05-22T05:57:38.739Z,12.80
2019-05-22T06:00:29.477Z,13.00
2019-05-22T06:03:31.503Z,13.10
2019-05-22T06:06:23.081Z,13.10
2019-05-22T06:08:55.763Z,13.50
2019-05-22T06:11:31.584Z,13.90
2019-05-22T06:14:08.623Z,13.80
2019-05-22T06:16:57.563Z,14.20
2019-05-22T06:19:28.437Z,14.40
2019-05-22T06:21:58.200Z,14.60
2019-05-22T06:24:38.033Z,14.60
2019-05-22T06:27:16.843Z,15.20
2019-05-22T06:29:53.045Z,15.20
2019-05-22T06:32:38.608Z,15.60
2019-05-22T06:35:10.033Z,16.30
2019-05-22T06:38:10.373Z,16.10
2019-05-22T06:40:39.935Z,15.80
2019-05-22T06:43:25.798Z,15.80
2019-05-22T06:45:56.374Z,16.10
2019-05-22T06:48:25.880Z,16.20
2019-05-22T06:50:56.456Z,16.00
2019-05-22T06:53:26.396Z,16.20
2019-05-22T06:55:56.138Z,16.30
2019-05-22T06:58:26.614Z,16.50
2019-05-22T07:00:56.225Z,16.90
2019-05-22T07:03:25.859Z,17.20
2019-05-22T07:05:56.088Z,17.20
2019-05-22T07:08:25.885Z,17.20
2019-05-22T07:10:55.521Z,17.30
2019-05-22T07:13:25.956Z,17.50
2019-05-22T07:15:55.852Z,17.80
2019-05-22T07:18:27.066Z,18.20
2019-05-22T07:20:58.277Z,18.30
2019-05-22T07:23:28.389Z,18.40
2019-05-22T07:25:58.884Z,18.50
2019-05-22T07:28:30.124Z,18.60
2019-05-22T07:31:00.371Z,18.70
2019-05-22T07:33:30.342Z,18.70
2019-05-22T07:36:17.230Z,19.00
2019-05-22T07:38:32.660Z,19.10
2019-05-22T07:41:02.664Z,19.30
2019-05-22T07:43:32.352Z,19.10
2019-05-22T07:46:02.401Z,19.60
2019-05-22T07:48:32.361Z,19.80
2019-05-22T07:51:04.063Z,20.00
2019-05-22T07:53:33.754Z,20.50
2019-05-22T07:56:07.731Z,20.40
2019-05-22T07:58:38.666Z,20.60
2019-05-22T08:01:09.605Z,20.50
2019-05-22T08:03:42.984Z,20.30
2019-05-22T08:06:13.279Z,20.50
2019-05-22T08:08:44.744Z,20.90
2019-05-22T08:11:15.977Z,21.10
2019-05-22T08:13:46.310Z,21.20
2019-05-22T08:16:17.553Z,21.10
2019-05-22T08:18:47.567Z,21.20
2019-05-22T08:21:17.495Z,21.00
2019-05-22T08:23:47.490Z,20.70
2019-05-22T08:26:54.276Z,21.50
2019-05-22T08:29:22.119Z,21.20
2019-05-22T08:31:53.434Z,20.90
2019-05-22T08:34:25.146Z,21.40
2019-05-22T08:36:55.261Z,21.50
2019-05-22T08:39:25.487Z,22.20
2019-05-22T08:41:55.735Z,21.90
2019-05-22T08:44:26.072Z,22.40
2019-05-22T08:46:56.512Z,22.50
2019-05-22T08:49:27.120Z,22.60
2019-05-22T08:51:57.883Z,22.90
2019-05-22T08:54:28.606Z,23.20
2019-05-22T08:56:58.741Z,22.80
2019-05-22T08:59:28.544Z,23.20
2019-05-22T09:01:58.272Z,22.80
2019-05-22T09:04:27.955Z,22.90
2019-05-22T09:06:58.665Z,23.40
2019-05-22T09:09:29.254Z,23.20
2019-05-22T09:11:58.991Z,22.70
2019-05-22T09:14:28.645Z,23.20
2019-05-22T09:16:58.628Z,23.80
2019-05-22T09:19:28.538Z,24.20
2019-05-22T09:21:58.985Z,24.30
2019-05-22T09:24:28.846Z,23.20
2019-05-22T09:27:02.609Z,23.40
2019-05-22T09:29:30.040Z,24.00
2019-05-22T09:31:59.797Z,24.60
2019-05-22T09:34:29.308Z,24.40
2019-05-22T09:36:59.112Z,23.50
2019-05-22T09:39:29.104Z,24.20
2019-05-22T09:41:58.594Z,23.50
2019-05-22T09:44:28.156Z,24.10
2019-05-22T09:46:57.781Z,24.80
2019-05-22T09:49:28.121Z,24.70
2019-05-22T09:51:57.747Z,24.60
2019-05-22T09:54:27.764Z,24.00
2019-05-22T09:56:57.407Z,24.20
2019-05-22T09:59:27.124Z,24.60
2019-05-22T10:01:57.155Z,24.90
2019-05-22T10:04:26.835Z,24.70
2019-05-22T10:06:56.427Z,24.60
2019-05-22T10:09:26.135Z,24.50
2019-05-22T10:11:56.359Z,25.00
2019-05-22T10:14:25.982Z,24.30
2019-05-22T10:16:55.634Z,23.50
2019-05-22T10:19:25.288Z,24.60
2019-05-22T10:21:55.616Z,25.00
2019-05-22T10:24:26.021Z,24.20
2019-05-22T10:26:56.361Z,24.60
2019-05-22T10:29:26.482Z,24.90
2019-05-22T10:32:16.985Z,25.30
2019-05-22T10:34:46.820Z,24.00
2019-05-22T10:37:16.857Z,24.60
2019-05-22T10:39:46.771Z,25.30
2019-05-22T10:42:16.998Z,26.00
2019-05-22T10:44:46.679Z,26.10
2019-05-22T10:47:18.802Z,26.10
2019-05-22T10:49:48.296Z,26.20
2019-05-22T10:52:18.323Z,25.80
2019-05-22T10:54:47.939Z,25.90
2019-05-22T10:57:18.272Z,25.70
2019-05-22T10:59:47.907Z,26.20
2019-05-22T11:02:17.638Z,26.50
2019-05-22T11:04:47.569Z,26.30
2019-05-22T11:07:18.103Z,26.80
2019-05-22T11:09:47.665Z,27.10
2019-05-22T11:12:18.433Z,26.40
2019-05-22T11:14:48.308Z,26.50
2019-05-22T11:17:18.468Z,25.60
2019-05-22T11:19:48.408Z,26.00
2019-05-22T11:22:19.166Z,26.20
2019-05-22T11:24:48.862Z,26.70
2019-05-22T11:27:18.831Z,26.90
2019-05-22T11:29:49.469Z,27.30
2019-05-22T11:32:20.015Z,27.20
2019-05-22T11:34:50.234Z,27.10
2019-05-22T11:37:21.073Z,27.20
2019-05-22T11:39:53.010Z,27.00
2019-05-22T11:42:22.831Z,27.00
2019-05-22T11:44:52.462Z,26.90
2019-05-22T11:47:22.096Z,27.30
2019-05-22T11:49:51.727Z,27.40
2019-05-22T11:52:21.493Z,27.50
2019-05-22T11:54:51.251Z,27.40
2019-05-22T11:57:21.240Z,26.00
2019-05-22T11:59:50.803Z,26.20
2019-05-22T12:02:23.124Z,26.00
2019-05-22T12:04:53.766Z,26.00
2019-05-22T12:07:23.412Z,26.60
2019-05-22T12:09:53.670Z,27.40
2019-05-22T12:12:24.066Z,27.20
2019-05-22T12:14:55.100Z,26.90
2019-05-22T12:17:37.722Z,26.10
2019-05-22T12:19:56.962Z,26.20
2019-05-22T12:22:26.561Z,25.60
2019-05-22T12:24:57.819Z,26.00
2019-05-22T12:27:27.496Z,25.90
2019-05-22T12:29:57.212Z,26.40
2019-05-22T12:32:29.665Z,26.60
2019-05-22T12:35:00.504Z,26.80
2019-05-22T12:37:30.948Z,26.60
2019-05-22T12:40:01.356Z,26.80
2019-05-22T12:42:31.769Z,27.30
2019-05-22T12:45:01.471Z,27.40
2019-05-22T12:47:31.766Z,26.10
2019-05-22T12:50:02.624Z,24.90
2019-05-22T12:52:32.519Z,25.60
2019-05-22T12:55:02.847Z,26.80
2019-05-22T12:57:34.483Z,27.10
2019-05-22T13:00:08.326Z,27.20
2019-05-22T13:02:42.232Z,27.30
2019-05-22T13:05:14.293Z,26.70
2019-05-22T13:07:42.377Z,27.00
2019-05-22T13:10:12.149Z,26.10
2019-05-22T13:12:41.720Z,26.20
2019-05-22T13:15:12.266Z,26.10
2019-05-22T13:17:42.791Z,25.80
2019-05-22T13:20:15.662Z,25.60
2019-05-22T13:22:47.394Z,25.00
2019-05-22T13:25:18.763Z,25.10
2019-05-22T13:27:51.196Z,25.30
2019-05-22T13:30:28.190Z,24.80
2019-05-22T13:32:57.038Z,25.70
2019-05-22T13:35:28.305Z,26.50
2019-05-22T13:37:58.933Z,26.60
2019-05-22T13:40:31.280Z,26.50
2019-05-22T13:43:02.275Z,25.80
2019-05-22T13:45:33.066Z,25.70
2019-05-22T13:48:02.702Z,25.60
2019-05-22T13:50:32.514Z,25.50
2019-05-22T13:53:03.792Z,25.60
2019-05-22T13:55:33.532Z,25.40
2019-05-22T13:58:05.391Z,25.20
2019-05-22T14:00:37.258Z,24.90
2019-05-22T14:03:07.697Z,24.90
2019-05-22T14:05:38.004Z,25.20
2019-05-22T14:08:09.276Z,26.10
2019-05-22T14:10:39.819Z,26.70
2019-05-22T14:13:09.525Z,27.10
2019-05-22T14:15:50.403Z,27.10
2019-05-22T14:18:10.788Z,26.40
2019-05-22T14:20:40.342Z,26.20
2019-05-22T14:23:09.907Z,25.90
2019-05-22T14:25:39.745Z,25.40
2019-05-22T14:28:09.658Z,24.90
2019-05-22T14:30:39.229Z,26.00
2019-05-22T14:33:08.858Z,26.10
2019-05-22T14:35:48.079Z,25.50
2019-05-22T14:38:12.127Z,25.50
2019-05-22T14:40:42.622Z,25.50
2019-05-22T14:43:12.519Z,25.90
2019-05-22T14:45:43.301Z,26.30
2019-05-22T14:48:13.855Z,26.00
2019-05-22T14:50:43.488Z,26.00
2019-05-22T14:53:14.324Z,26.30
2019-05-22T14:55:44.497Z,26.40
2019-05-22T14:58:16.207Z,25.90
2019-05-22T15:00:46.686Z,25.40
2019-05-22T15:03:16.574Z,25.10
2019-05-22T15:05:46.141Z,25.10
2019-05-22T15:08:18.110Z,25.60
2019-05-22T15:10:48.045Z,26.20
2019-05-22T15:13:17.677Z,26.20
2019-05-22T15:15:48.049Z,26.20
2019-05-22T15:18:17.995Z,26.40
2019-05-22T15:20:49.199Z,25.90
2019-05-22T15:23:21.032Z,25.90
2019-05-22T15:25:50.765Z,26.10
2019-05-22T15:28:26.014Z,25.30
2019-05-22T15:30:54.063Z,25.00
2019-05-22T15:33:24.316Z,25.50
2019-05-22T15:35:54.685Z,25.20
2019-05-22T15:38:24.539Z,25.20
2019-05-22T15:40:55.030Z,24.90
2019-05-22T15:43:26.444Z,24.80
2019-05-22T15:45:59.586Z,24.60
2019-05-22T15:48:31.691Z,24.70
2019-05-22T15:51:06.941Z,25.00
2019-05-22T15:53:38.242Z,25.20
2019-05-22T15:56:10.465Z,24.80
2019-05-22T15:58:43.863Z,24.70
2019-05-22T16:01:16.485Z,24.80
2019-05-22T16:03:48.228Z,24.90
2019-05-22T16:06:18.457Z,24.70
2019-05-22T16:08:48.888Z,24.30
2019-05-22T16:11:20.691Z,24.30
2019-05-22T16:13:51.331Z,24.30
2019-05-22T16:16:23.948Z,24.20
2019-05-22T16:18:56.524Z,24.10
2019-05-22T16:21:26.742Z,24.00
2019-05-22T16:23:58.468Z,24.30
2019-05-22T16:26:29.962Z,24.60
2019-05-22T16:29:01.569Z,24.30
2019-05-22T16:31:32.075Z,24.10
2019-05-22T16:34:02.622Z,24.30
2019-05-22T16:36:33.270Z,24.50
2019-05-22T16:39:04.420Z,24.30
2019-05-22T16:41:34.843Z,24.10
2019-05-22T16:44:05.513Z,24.40
2019-05-22T16:46:36.044Z,24.60
2019-05-22T16:49:06.352Z,24.50
2019-05-22T16:51:36.532Z,24.30
2019-05-22T16:54:08.583Z,24.30
2019-05-22T16:56:39.420Z,24.50
2019-05-22T16:59:11.832Z,24.40
2019-05-22T17:01:57.693Z,24.20
2019-05-22T17:04:14.603Z,23.80
2019-05-22T17:06:45.415Z,24.00
2019-05-22T17:09:16.575Z,24.10
2019-05-22T17:11:46.644Z,23.90
2019-05-22T17:14:17.672Z,24.00
2019-05-22T17:16:47.437Z,23.90
2019-05-22T17:19:26.416Z,24.00
2019-05-22T17:21:49.791Z,24.10
2019-05-22T17:24:20.066Z,24.00
2019-05-22T17:26:52.448Z,24.00
2019-05-22T17:29:22.896Z,23.70
2019-05-22T17:31:53.703Z,23.50
2019-05-22T17:34:33.169Z,23.50
2019-05-22T17:37:09.666Z,23.50
2019-05-22T17:39:42.293Z,23.50
2019-05-22T17:42:12.592Z,23.60
2019-05-22T17:44:45.579Z,23.50
2019-05-22T17:47:14.703Z,23.40
2019-05-22T17:49:45.155Z,23.50
2019-05-22T17:52:16.380Z,23.50
2019-05-22T17:54:46.597Z,23.30
2019-05-22T17:57:16.572Z,23.40
2019-05-22T17:59:46.197Z,23.40
2019-05-22T18:02:17.866Z,23.30
2019-05-22T18:04:47.425Z,23.40
2019-05-22T18:07:17.338Z,23.40
2019-05-22T18:09:46.938Z,23.30
2019-05-22T18:12:17.338Z,23.20
2019-05-22T18:14:47.904Z,23.20
2019-05-22T18:17:17.839Z,23.10
2019-05-22T18:19:47.463Z,23.10
2019-05-22T18:22:17.333Z,22.90
2019-05-22T18:24:47.892Z,22.90
2019-05-22T18:27:17.471Z,22.90
2019-05-22T18:29:47.032Z,22.80
2019-05-22T18:32:17.121Z,22.90
2019-05-22T18:34:46.696Z,22.90
2019-05-22T18:37:16.254Z,22.90
2019-05-22T18:39:45.910Z,22.70
2019-05-22T18:42:15.938Z,22.70
2019-05-22T18:44:45.522Z,22.70
2019-05-22T18:47:16.551Z,22.70
2019-05-22T18:49:46.129Z,22.70
2019-05-22T18:52:15.751Z,22.70
2019-05-22T18:54:45.357Z,22.50
2019-05-22T18:57:14.919Z,22.50
2019-05-22T18:59:44.994Z,22.50
2019-05-22T19:02:15.351Z,22.40
2019-05-22T19:04:45.014Z,22.30
2019-05-22T19:07:14.745Z,22.30
2019-05-22T19:09:44.479Z,22.30
2019-05-22T19:12:14.242Z,22.20
2019-05-22T19:14:45.403Z,22.20
2019-05-22T19:17:15.096Z,22.10
2019-05-22T19:19:44.732Z,22.00
2019-05-22T19:22:14.892Z,21.90
2019-05-22T19:24:44.495Z,21.90
2019-05-22T19:27:14.113Z,21.70
2019-05-22T19:29:44.884Z,21.70
2019-05-22T19:32:15.155Z,21.60
2019-05-22T19:34:44.920Z,21.70
2019-05-22T19:37:14.508Z,21.60
2019-05-22T19:39:44.346Z,21.60
2019-05-22T19:42:14.347Z,21.60
2019-05-22T19:44:44.150Z,21.50
2019-05-22T19:47:14.379Z,21.50
2019-05-22T19:49:44.513Z,21.40
2019-05-22T19:52:15.052Z,21.30
2019-05-22T19:54:45.512Z,21.30
2019-05-22T19:57:16.347Z,21.30
2019-05-22T19:59:46.338Z,21.20
2019-05-22T20:02:17.639Z,21.10
2019-05-22T20:04:47.548Z,21.00
2019-05-22T20:07:17.419Z,21.00
2019-05-22T20:09:47.233Z,20.90
2019-05-22T20:12:17.961Z,20.80
2019-05-22T20:14:47.799Z,20.80
2019-05-22T20:17:17.525Z,20.80
2019-05-22T20:19:47.270Z,20.70
2019-05-22T20:22:17.877Z,20.80
2019-05-22T20:24:47.504Z,20.70
2019-05-22T20:27:17.922Z,20.70
2019-05-22T20:29:47.603Z,20.70
2019-05-22T20:32:18.170Z,20.70
2019-05-22T20:34:48.507Z,20.60
2019-05-22T20:37:18.744Z,20.60
2019-05-22T20:39:48.312Z,20.50
2019-05-22T20:42:18.377Z,20.50
2019-05-22T20:44:48.436Z,20.30
2019-05-22T20:47:20.556Z,20.30
2019-05-22T20:49:51.492Z,20.20
2019-05-22T20:52:22.022Z,20.20
2019-05-22T20:54:52.352Z,20.10
2019-05-22T20:57:22.709Z,20.10
2019-05-22T20:59:52.288Z,20.10
2019-05-22T21:02:24.156Z,20.10
2019-05-22T21:04:55.006Z,20.00
2019-05-22T21:07:31.102Z,20.00
2019-05-22T21:10:00.700Z,19.90
2019-05-22T21:12:35.508Z,19.90
2019-05-22T21:15:03.093Z,19.80
2019-05-22T21:17:33.670Z,19.80
2019-05-22T21:20:06.032Z,19.70
2019-05-22T21:22:35.597Z,19.60
2019-05-22T21:25:07.138Z,19.60
2019-05-22T21:27:38.465Z,19.60
2019-05-22T21:30:12.726Z,19.50
2019-05-22T21:32:43.757Z,19.50
2019-05-22T21:35:16.410Z,19.40
2019-05-22T21:37:45.962Z,19.40
2019-05-22T21:40:17.049Z,19.20
2019-05-22T21:42:46.692Z,19.20
2019-05-22T21:45:17.047Z,19.20
2019-05-22T21:47:46.747Z,19.20
2019-05-22T21:50:17.611Z,19.20
2019-05-22T21:52:47.953Z,19.20
2019-05-22T21:55:19.391Z,19.10
2019-05-22T21:57:49.223Z,19.10
2019-05-22T22:00:41.155Z,19.20
2019-05-22T22:03:22.119Z,19.20
2019-05-22T22:05:51.686Z,19.00
2019-05-22T22:08:21.912Z,19.10
2019-05-22T22:10:51.685Z,19.00
2019-05-22T22:13:21.307Z,18.90
2019-05-22T22:15:52.536Z,18.90
2019-05-22T22:18:24.678Z,18.80
2019-05-22T22:20:55.067Z,18.80
2019-05-22T22:23:25.703Z,18.40
2019-05-22T22:25:56.290Z,18.30
2019-05-22T22:28:27.247Z,18.30
2019-05-22T22:30:58.838Z,18.50
2019-05-22T22:33:31.334Z,18.40
2019-05-22T22:36:02.176Z,18.40
2019-05-22T22:38:35.139Z,18.50
2019-05-22T22:41:07.227Z,18.30
2019-05-22T22:43:39.660Z,17.90
2019-05-22T22:46:21.123Z,18.20
2019-05-22T22:48:53.437Z,18.20
2019-05-22T22:51:24.466Z,18.30
2019-05-22T22:53:56.154Z,18.20
2019-05-22T22:56:26.717Z,18.20
2019-05-22T22:58:56.743Z,18.20
2019-05-22T23:01:30.551Z,18.20
2019-05-22T23:04:01.739Z,18.10
2019-05-22T23:06:35.866Z,18.00
2019-05-22T23:09:05.307Z,18.00
2019-05-22T23:11:37.740Z,18.00
2019-05-22T23:14:08.547Z,18.00
2019-05-22T23:16:40.701Z,18.00
2019-05-22T23:19:14.754Z,17.90
2019-05-22T23:21:44.672Z,17.90
2019-05-22T23:24:14.585Z,17.80
2019-05-22T23:26:44.859Z,17.80
2019-05-22T23:29:15.592Z,17.90
2019-05-22T23:31:45.080Z,17.90
2019-05-22T23:34:15.041Z,17.80
2019-05-22T23:36:45.370Z,17.60
2019-05-22T23:39:15.406Z,17.60
2019-05-22T23:41:46.582Z,17.60
2019-05-22T23:44:19.560Z,17.60
2019-05-22T23:46:49.716Z,17.50
2019-05-22T23:49:19.392Z,17.50
2019-05-22T23:51:50.323Z,17.40
2019-05-22T23:54:20.850Z,17.40
2019-05-22T23:56:52.021Z,17.30
2019-05-22T23:59:22.342Z,17.20
